Time;durP1;ratioP1;P1;durP2;ratioP2;P2;SDS_P1;SDS_P2;PMS_P1;PMS_P2;Temp;Humidity;BMP_temperature;BMP_pressure;BME280_temperature;BME280_humidity;BME280_pressure;Samples;Min_cycle;Max_cycle;Signal;HPM_P1;HPM_P2
2021/04/18 00:00:38;;;;;;;0.00;0.00;;;;;;;;;;5016334;28;20223;-63
2021/04/18 00:03:06;;;;;;;0.77;0.73;;;;;;;;;;5014624;28;20693;-62
2021/04/18 00:05:32;;;;;;;5.87;3.90;;;;;;;;;;5013617;28;20194;-62
2021/04/18 00:08:04;;;;;;;7.13;2.73;;;;;;;;;;5013490;28;20191;-63
2021/04/18 00:10:35;;;;;;;0.10;0.10;;;;;;;;;;5013819;28;20567;-63
2021/04/18 00:13:08;;;;;;;0.00;0.00;;;;;;;;;;5011079;28;20211;-63
2021/04/18 00:15:35;;;;;;;0.97;0.20;;;;;;;;;;5015249;28;20669;-62
2021/04/18 00:18:04;;;;;;;0.10;0.10;;;;;;;;;;5013548;28;20609;-62
2021/04/18 00:20:31;;;;;;;0.10;0.10;;;;;;;;;;5018260;28;20679;-61
2021/04/18 00:23:00;;;;;;;0.00;0.00;;;;;;;;;;5014618;28;20180;-61
2021/04/18 00:25:26;;;;;;;0.33;0.33;;;;;;;;;;5009752;28;21507;-62
2021/04/18 00:27:56;;;;;;;0.00;0.00;;;;;;;;;;5009523;28;20227;-62
2021/04/18 00:30:25;;;;;;;0.00;0.00;;;;;;;;;;5010880;28;20195;-62
2021/04/18 00:32:52;;;;;;;0.60;0.60;;;;;;;;;;4990390;28;20231;-62
2021/04/18 00:35:20;;;;;;;0.00;0.00;;;;;;;;;;4996152;28;20291;-61
2021/04/18 00:37:51;;;;;;;0.00;0.00;;;;;;;;;;5014597;28;20185;-62
2021/04/18 00:40:19;;;;;;;0.00;0.00;;;;;;;;;;5011180;28;20177;-62
2021/04/18 00:42:47;;;;;;;0.40;0.40;;;;;;;;;;5010297;28;20197;-61
2021/04/18 00:45:15;;;;;;;0.00;0.00;;;;;;;;;;5017007;28;20180;-61
2021/04/18 00:47:45;;;;;;;0.00;0.00;;;;;;;;;;5016000;28;20901;-61
2021/04/18 00:50:13;;;;;;;0.23;0.20;;;;;;;;;;5011227;28;20255;-62
2021/04/18 00:52:41;;;;;;;0.00;0.00;;;;;;;;;;5010640;28;20263;-61
2021/04/18 00:55:08;;;;;;;0.20;0.20;;;;;;;;;;4998408;28;20223;-61
2021/04/18 00:57:35;;;;;;;0.10;0.10;;;;;;;;;;5012832;28;20173;-61
2021/04/18 01:00:04;;;;;;;1.10;0.60;;;;;;;;;;5013076;28;20302;-61
2021/04/18 01:02:32;;;;;;;2.83;0.57;;;;;;;;;;5011424;28;20180;-61
2021/04/18 01:05:01;;;;;;;1.40;1.30;;;;;;;;;;5009595;28;20176;-61
2021/04/18 01:07:28;;;;;;;9.07;8.30;;;;;;;;;;4991350;28;20207;-61
2021/04/18 01:09:55;;;;;;;0.00;0.00;;;;;;;;;;5016118;28;20188;-61
2021/04/18 01:12:25;;;;;;;0.17;0.17;;;;;;;;;;5010427;28;20196;-61
2021/04/18 01:14:52;;;;;;;0.30;0.30;;;;;;;;;;5012735;28;20201;-61
2021/04/18 01:17:20;;;;;;;2.10;1.30;;;;;;;;;;5010851;28;20176;-61
2021/04/18 01:19:47;;;;;;;0.70;0.10;;;;;;;;;;5011761;28;20381;-61
2021/04/18 01:22:13;;;;;;;0.20;0.20;;;;;;;;;;5011768;28;20250;-61
2021/04/18 01:24:43;;;;;;;0.93;0.60;;;;;;;;;;5010625;28;20299;-61
2021/04/18 01:27:11;;;;;;;0.23;0.20;;;;;;;;;;5012022;28;20188;-61
2021/04/18 01:29:39;;;;;;;0.00;0.00;;;;;;;;;;5014048;28;20191;-61
2021/04/18 01:32:08;;;;;;;2.13;1.17;;;;;;;;;;5015483;28;20184;-61
2021/04/18 01:34:42;;;;;;;0.00;0.00;;;;;;;;;;5014448;28;20307;-61
2021/04/18 01:37:08;;;;;;;1.03;1.03;;;;;;;;;;5008514;28;20330;-62
2021/04/18 01:39:36;;;;;;;0.00;0.00;;;;;;;;;;5014915;28;20184;-62
2021/04/18 01:42:03;;;;;;;0.43;0.30;;;;;;;;;;5013249;28;20181;-62
2021/04/18 01:44:29;;;;;;;0.97;0.67;;;;;;;;;;5010097;28;20955;-62
2021/04/18 01:46:57;;;;;;;0.00;0.00;;;;;;;;;;5017321;28;20524;-62
2021/04/18 01:49:24;;;;;;;0.00;0.00;;;;;;;;;;5017650;28;20225;-62
2021/04/18 01:51:50;;;;;;;0.10;0.10;;;;;;;;;;5017748;28;20188;-62
2021/04/18 01:54:18;;;;;;;1.67;1.57;;;;;;;;;;5018338;28;20212;-62
2021/04/18 01:56:49;;;;;;;0.67;0.67;;;;;;;;;;5015426;28;20181;-63
2021/04/18 01:59:16;;;;;;;0.20;0.20;;;;;;;;;;5015328;28;20223;-62
2021/04/18 02:01:43;;;;;;;35.70;1.50;;;;;;;;;;5017521;28;20246;-62
2021/04/18 02:04:18;;;;;;;5.93;1.47;;;;;;;;;;5015264;28;20222;-62
2021/04/18 02:06:47;;;;;;;1.73;0.27;;;;;;;;;;5017192;28;20191;-62
2021/04/18 02:09:13;;;;;;;1.20;1.17;;;;;;;;;;5016558;28;20188;-63
2021/04/18 02:11:41;;;;;;;0.00;0.00;;;;;;;;;;5016985;28;20657;-62
2021/04/18 02:14:08;;;;;;;0.00;0.00;;;;;;;;;;5012766;28;20204;-62
2021/04/18 02:16:37;;;;;;;0.40;0.30;;;;;;;;;;5014617;28;20306;-62
2021/04/18 02:19:05;;;;;;;0.00;0.00;;;;;;;;;;5016660;28;20689;-62
2021/04/18 02:21:32;;;;;;;0.00;0.00;;;;;;;;;;5015386;28;20176;-62
2021/04/18 02:23:58;;;;;;;0.13;0.07;;;;;;;;;;5014111;28;20291;-62
2021/04/18 02:26:25;;;;;;;1.40;0.93;;;;;;;;;;5013600;28;20614;-63
2021/04/18 02:28:52;;;;;;;2.57;1.47;;;;;;;;;;5014972;28;20238;-62
2021/04/18 02:31:18;;;;;;;0.00;0.00;;;;;;;;;;5006300;28;20185;-62
2021/04/18 02:33:45;;;;;;;0.00;0.00;;;;;;;;;;4992559;28;20200;-62
2021/04/18 02:36:12;;;;;;;1.17;1.10;;;;;;;;;;5007623;28;20908;-62
2021/04/18 02:38:39;;;;;;;0.93;0.93;;;;;;;;;;5015709;28;20187;-63
2021/04/18 02:41:07;;;;;;;0.37;0.37;;;;;;;;;;5016311;28;20338;-62
2021/04/18 02:43:34;;;;;;;0.30;0.30;;;;;;;;;;5017120;28;20207;-62
2021/04/18 02:46:00;;;;;;;0.37;0.23;;;;;;;;;;5017218;28;20222;-62
2021/04/18 02:48:27;;;;;;;0.47;0.43;;;;;;;;;;5015455;28;20198;-62
2021/04/18 02:50:54;;;;;;;1.47;1.00;;;;;;;;;;5013652;28;20266;-62
2021/04/18 02:53:22;;;;;;;0.00;0.00;;;;;;;;;;5018668;28;20740;-62
2021/04/18 02:55:49;;;;;;;0.40;0.23;;;;;;;;;;5013057;28;20195;-62
2021/04/18 02:58:16;;;;;;;0.90;0.90;;;;;;;;;;5015806;28;20188;-62
2021/04/18 03:00:43;;;;;;;0.00;0.00;;;;;;;;;;5016561;28;20247;-62
2021/04/18 03:03:09;;;;;;;0.50;0.43;;;;;;;;;;5018215;28;20194;-62
2021/04/18 03:05:36;;;;;;;0.23;0.23;;;;;;;;;;5016145;28;20247;-62
2021/04/18 03:08:03;;;;;;;0.40;0.40;;;;;;;;;;5018374;28;20189;-62
2021/04/18 03:10:29;;;;;;;0.57;0.57;;;;;;;;;;5019484;28;20180;-62
2021/04/18 03:12:56;;;;;;;0.37;0.27;;;;;;;;;;5018894;28;20289;-62
2021/04/18 03:15:23;;;;;;;1.30;0.57;;;;;;;;;;5020441;28;20217;-62
2021/04/18 03:17:50;;;;;;;0.00;0.00;;;;;;;;;;5019250;28;20258;-62
2021/04/18 03:20:17;;;;;;;1.33;1.23;;;;;;;;;;5017487;28;20260;-62
2021/04/18 03:22:43;;;;;;;0.20;0.20;;;;;;;;;;5015333;28;20314;-62
2021/04/18 03:25:13;;;;;;;0.10;0.10;;;;;;;;;;4997423;28;20192;-62
2021/04/18 03:27:41;;;;;;;0.00;0.00;;;;;;;;;;5014388;28;20184;-62
2021/04/18 03:30:08;;;;;;;0.20;0.20;;;;;;;;;;5014451;28;20192;-62
2021/04/18 03:32:35;;;;;;;0.00;0.00;;;;;;;;;;5017473;28;20250;-62
2021/04/18 03:35:03;;;;;;;0.00;0.00;;;;;;;;;;5019421;28;20283;-63
2021/04/18 03:37:30;;;;;;;0.37;0.37;;;;;;;;;;5017576;28;20214;-62
2021/04/18 03:39:56;;;;;;;0.43;0.43;;;;;;;;;;5018282;28;20184;-62
2021/04/18 03:42:23;;;;;;;0.00;0.00;;;;;;;;;;5019232;28;20693;-62
2021/04/18 03:44:49;;;;;;;1.40;0.67;;;;;;;;;;5015146;28;20254;-62
2021/04/18 03:47:16;;;;;;;0.00;0.00;;;;;;;;;;5020457;28;20191;-62
2021/04/18 03:49:42;;;;;;;0.00;0.00;;;;;;;;;;5018641;28;20677;-62
2021/04/18 03:52:09;;;;;;;0.20;0.20;;;;;;;;;;5022414;28;20188;-62
2021/04/18 03:54:35;;;;;;;0.93;0.80;;;;;;;;;;5018700;28;20310;-62
2021/04/18 03:57:02;;;;;;;0.13;0.13;;;;;;;;;;5014378;28;20237;-62
2021/04/18 03:59:29;;;;;;;1.83;0.17;;;;;;;;;;5013801;28;20239;-62
2021/04/18 04:01:56;;;;;;;0.00;0.00;;;;;;;;;;5015572;28;20179;-62
2021/04/18 04:04:23;;;;;;;0.13;0.13;;;;;;;;;;5013874;28;20354;-62
2021/04/18 04:06:49;;;;;;;0.40;0.23;;;;;;;;;;5017948;28;20220;-62
2021/04/18 04:09:16;;;;;;;0.00;0.00;;;;;;;;;;5016507;28;20559;-62
2021/04/18 04:11:43;;;;;;;0.00;0.00;;;;;;;;;;5017881;28;20270;-62
2021/04/18 04:14:09;;;;;;;0.40;0.40;;;;;;;;;;5018651;28;20301;-62
2021/04/18 04:16:36;;;;;;;0.00;0.00;;;;;;;;;;5018889;28;20173;-62
2021/04/18 04:19:02;;;;;;;0.00;0.00;;;;;;;;;;5011845;28;20191;-62
2021/04/18 04:21:29;;;;;;;0.00;0.00;;;;;;;;;;5011016;28;20650;-62
2021/04/18 04:23:56;;;;;;;7.03;0.67;;;;;;;;;;5008531;28;20647;-62
2021/04/18 04:26:22;;;;;;;3.37;3.20;;;;;;;;;;5014045;28;20180;-62
2021/04/18 04:28:49;;;;;;;0.00;0.00;;;;;;;;;;5011247;28;20181;-62
2021/04/18 04:31:15;;;;;;;0.20;0.20;;;;;;;;;;5015115;28;20318;-62
2021/04/18 04:33:42;;;;;;;0.40;0.40;;;;;;;;;;5017573;28;20191;-62
2021/04/18 04:36:08;;;;;;;0.00;0.00;;;;;;;;;;5017716;28;20194;-62
2021/04/18 04:38:35;;;;;;;0.13;0.13;;;;;;;;;;5011079;28;20191;-62
2021/04/18 04:41:02;;;;;;;1.50;0.57;;;;;;;;;;5010059;28;20268;-62
2021/04/18 04:43:29;;;;;;;12.33;8.00;;;;;;;;;;5011008;28;20180;-62
2021/04/18 04:45:55;;;;;;;0.00;0.00;;;;;;;;;;5010782;28;20181;-62
2021/04/18 04:48:22;;;;;;;0.57;0.57;;;;;;;;;;5013206;28;20307;-62
2021/04/18 04:50:49;;;;;;;0.00;0.00;;;;;;;;;;5017009;28;20235;-62
2021/04/18 04:53:15;;;;;;;0.00;0.00;;;;;;;;;;5018697;28;20677;-62
2021/04/18 04:55:44;;;;;;;3.60;2.40;;;;;;;;;;5010435;28;20846;-62
2021/04/18 04:58:10;;;;;;;0.00;0.00;;;;;;;;;;5011731;28;20584;-62
2021/04/18 05:00:37;;;;;;;0.00;0.00;;;;;;;;;;5010202;28;20235;-62
2021/04/18 05:03:04;;;;;;;8.73;0.77;;;;;;;;;;5010568;28;20169;-62
2021/04/18 05:05:32;;;;;;;4.20;1.77;;;;;;;;;;5011958;28;20180;-62
2021/04/18 05:07:58;;;;;;;0.00;0.00;;;;;;;;;;5012124;28;20419;-62
2021/04/18 05:10:25;;;;;;;0.00;0.00;;;;;;;;;;5012644;28;20766;-62
2021/04/18 05:12:51;;;;;;;0.83;0.83;;;;;;;;;;4995223;28;20176;-63
2021/04/18 05:15:21;;;;;;;0.00;0.00;;;;;;;;;;5012534;28;20200;-62
2021/04/18 05:17:48;;;;;;;0.00;0.00;;;;;;;;;;5011232;28;21027;-62
2021/04/18 05:20:15;;;;;;;0.00;0.00;;;;;;;;;;5012146;28;20246;-62
2021/04/18 05:22:41;;;;;;;0.00;0.00;;;;;;;;;;5013104;28;20541;-63
2021/04/18 05:25:08;;;;;;;3.13;1.47;;;;;;;;;;5008561;28;20181;-62
2021/04/18 05:27:35;;;;;;;0.00;0.00;;;;;;;;;;5014071;28;20591;-62
2021/04/18 05:30:01;;;;;;;9.67;1.57;;;;;;;;;;5010349;28;20209;-60
2021/04/18 05:32:29;;;;;;;0.13;0.13;;;;;;;;;;5015048;28;20313;-60
2021/04/18 05:34:55;;;;;;;2.40;0.83;;;;;;;;;;5013564;28;20551;-60
2021/04/18 05:37:23;;;;;;;20.13;1.70;;;;;;;;;;5011195;28;20180;-60
2021/04/18 05:39:49;;;;;;;3.20;1.53;;;;;;;;;;5013094;28;20566;-61
2021/04/18 05:42:16;;;;;;;0.00;0.00;;;;;;;;;;5011938;28;20653;-61
2021/04/18 05:44:43;;;;;;;0.57;0.50;;;;;;;;;;5014442;28;20433;-61
2021/04/18 05:47:09;;;;;;;0.20;0.20;;;;;;;;;;5011013;28;21195;-61
2021/04/18 05:49:36;;;;;;;0.00;0.00;;;;;;;;;;5012266;28;20641;-61
2021/04/18 05:52:03;;;;;;;0.10;0.10;;;;;;;;;;5011660;28;20418;-61
2021/04/18 05:54:29;;;;;;;0.07;0.07;;;;;;;;;;5010818;28;20226;-61
2021/04/18 05:56:56;;;;;;;0.63;0.50;;;;;;;;;;5010436;28;20191;-61
2021/04/18 05:59:22;;;;;;;1.30;1.20;;;;;;;;;;5010381;28;20224;-61
2021/04/18 06:01:49;;;;;;;0.13;0.13;;;;;;;;;;5007927;28;20185;-61
2021/04/18 06:04:15;;;;;;;0.00;0.00;;;;;;;;;;5009110;28;20181;-61
2021/04/18 06:06:42;;;;;;;1.03;1.03;;;;;;;;;;5010810;28;20187;-61
2021/04/18 06:09:09;;;;;;;0.00;0.00;;;;;;;;;;5008492;28;20193;-62
2021/04/18 06:11:35;;;;;;;0.83;0.83;;;;;;;;;;5011951;28;20184;-61
2021/04/18 06:14:02;;;;;;;0.00;0.00;;;;;;;;;;5012059;28;20303;-61
2021/04/18 06:16:28;;;;;;;4.93;1.10;;;;;;;;;;5009330;28;20512;-61
2021/04/18 06:18:55;;;;;;;0.00;0.00;;;;;;;;;;5012886;28;20254;-61
2021/04/18 06:21:21;;;;;;;1.13;1.03;;;;;;;;;;5011183;28;20246;-61
2021/04/18 06:23:48;;;;;;;1.03;1.03;;;;;;;;;;5018458;28;20246;-61
2021/04/18 06:26:14;;;;;;;0.00;0.00;;;;;;;;;;5011004;28;20188;-61
2021/04/18 06:28:41;;;;;;;0.00;0.00;;;;;;;;;;5008896;28;20187;-61
2021/04/18 06:31:07;;;;;;;1.33;0.83;;;;;;;;;;5010826;28;20184;-61
2021/04/18 06:33:34;;;;;;;5.80;0.73;;;;;;;;;;5010475;28;20729;-61
2021/04/18 06:36:01;;;;;;;0.10;0.10;;;;;;;;;;5011621;28;20266;-61
2021/04/18 06:38:28;;;;;;;0.00;0.00;;;;;;;;;;5016637;28;20211;-62
2021/04/18 06:40:55;;;;;;;0.57;0.57;;;;;;;;;;5016048;28;20183;-61
2021/04/18 06:43:23;;;;;;;1.90;1.23;;;;;;;;;;5012239;28;20624;-61
2021/04/18 06:45:50;;;;;;;0.00;0.00;;;;;;;;;;5012285;28;20194;-61
2021/04/18 06:48:18;;;;;;;0.00;0.00;;;;;;;;;;5014283;28;20206;-62
2021/04/18 06:50:46;;;;;;;1.30;1.20;;;;;;;;;;5020503;28;20180;-62
2021/04/18 06:53:12;;;;;;;0.00;0.00;;;;;;;;;;5014588;28;20211;-61
2021/04/18 06:55:39;;;;;;;0.20;0.20;;;;;;;;;;5013774;28;20203;-61
2021/04/18 06:58:06;;;;;;;0.10;0.10;;;;;;;;;;5015164;28;20240;-61
2021/04/18 07:00:33;;;;;;;1.43;1.43;;;;;;;;;;5013830;28;20225;-61
2021/04/18 07:03:13;;;;;;;0.23;0.23;;;;;;;;;;5010783;28;20966;-61
2021/04/18 07:05:43;;;;;;;0.30;0.30;;;;;;;;;;5014612;28;20202;-61
2021/04/18 07:08:20;;;;;;;0.30;0.30;;;;;;;;;;5012530;28;20183;-61
2021/04/18 07:10:47;;;;;;;0.00;0.00;;;;;;;;;;5011127;28;20184;-61
2021/04/18 07:13:15;;;;;;;1.83;0.10;;;;;;;;;;5013713;28;20182;-61
2021/04/18 07:15:43;;;;;;;0.00;0.00;;;;;;;;;;5013102;28;20635;-61
2021/04/18 07:18:13;;;;;;;0.00;0.00;;;;;;;;;;5011698;28;20188;-61
2021/04/18 07:20:57;;;;;;;2.40;1.63;;;;;;;;;;5016107;28;20754;-61
2021/04/18 07:23:29;;;;;;;0.00;0.00;;;;;;;;;;5020372;28;20303;-61
2021/04/18 07:26:00;;;;;;;0.20;0.20;;;;;;;;;;5014552;28;20690;-61
2021/04/18 07:28:27;;;;;;;0.27;0.27;;;;;;;;;;5013424;28;20175;-61
2021/04/18 07:31:00;;;;;;;0.20;0.20;;;;;;;;;;5012731;28;20314;-62
2021/04/18 07:33:27;;;;;;;0.73;0.73;;;;;;;;;;5012216;28;20697;-61
2021/04/18 07:35:53;;;;;;;0.03;0.03;;;;;;;;;;5015904;28;22072;-61
2021/04/18 07:38:22;;;;;;;7.20;3.83;;;;;;;;;;5011756;28;20176;-62
2021/04/18 07:40:50;;;;;;;0.73;0.73;;;;;;;;;;5017100;28;20187;-62
2021/04/18 07:43:18;;;;;;;7.40;1.87;;;;;;;;;;5016659;28;20629;-61
2021/04/18 07:45:46;;;;;;;0.13;0.13;;;;;;;;;;5018001;28;20439;-61
2021/04/18 07:48:14;;;;;;;4.70;3.10;;;;;;;;;;5018849;28;20199;-61
2021/04/18 07:50:41;;;;;;;0.33;0.33;;;;;;;;;;5016515;28;20222;-62
2021/04/18 07:53:08;;;;;;;1.33;1.23;;;;;;;;;;5010566;28;20634;-61
2021/04/18 07:55:36;;;;;;;0.00;0.00;;;;;;;;;;5013726;28;21045;-61
2021/04/18 07:58:03;;;;;;;2.13;1.73;;;;;;;;;;5014118;28;20268;-61
2021/04/18 08:00:30;;;;;;;0.37;0.37;;;;;;;;;;5015723;28;20539;-61
2021/04/18 08:02:56;;;;;;;0.53;0.53;;;;;;;;;;5015917;28;20177;-61
2021/04/18 08:05:25;;;;;;;0.77;0.77;;;;;;;;;;5014146;28;20199;-61
2021/04/18 08:08:06;;;;;;;0.17;0.17;;;;;;;;;;5013500;28;20203;-61
2021/04/18 08:10:33;;;;;;;0.00;0.00;;;;;;;;;;5009860;28;20195;-61
2021/04/18 08:13:04;;;;;;;0.40;0.40;;;;;;;;;;5015662;28;20483;-61
2021/04/18 08:15:32;;;;;;;0.43;0.33;;;;;;;;;;5008423;28;20207;-61
2021/04/18 08:18:09;;;;;;;2.77;2.57;;;;;;;;;;5013330;28;20258;-61
2021/04/18 08:20:37;;;;;;;7.33;1.30;;;;;;;;;;5012694;28;20583;-61
2021/04/18 08:23:09;;;;;;;0.00;0.00;;;;;;;;;;5011570;28;20275;-61
2021/04/18 08:25:37;;;;;;;1.17;1.07;;;;;;;;;;5010901;28;20200;-61
2021/04/18 08:28:04;;;;;;;4.73;1.40;;;;;;;;;;5016835;28;20180;-61
2021/04/18 08:30:32;;;;;;;12.83;6.37;;;;;;;;;;5014155;28;20180;-61
2021/04/18 08:32:59;;;;;;;1.80;1.63;;;;;;;;;;5018021;28;20195;-61
2021/04/18 08:35:29;;;;;;;9.70;1.93;;;;;;;;;;5016817;28;20366;-61
2021/04/18 08:38:14;;;;;;;1.43;1.33;;;;;;;;;;5014135;28;21002;-61
2021/04/18 08:40:42;;;;;;;9.20;2.70;;;;;;;;;;5016488;28;20184;-61
2021/04/18 08:43:23;;;;;;;0.67;0.40;;;;;;;;;;5018494;28;20191;-61
2021/04/18 08:45:51;;;;;;;0.00;0.00;;;;;;;;;;5016596;28;20191;-61
2021/04/18 08:48:18;;;;;;;2.17;0.90;;;;;;;;;;5016316;28;20183;-61
2021/04/18 08:50:58;;;;;;;0.20;0.20;;;;;;;;;;5016338;28;20262;-61
2021/04/18 08:53:26;;;;;;;0.00;0.00;;;;;;;;;;5018516;28;20245;-62
2021/04/18 08:56:02;;;;;;;3.77;2.00;;;;;;;;;;5017209;28;20253;-61
2021/04/18 08:58:36;;;;;;;0.00;0.00;;;;;;;;;;5015967;28;20185;-62
2021/04/18 09:01:13;;;;;;;0.27;0.27;;;;;;;;;;5014577;28;20914;-61
2021/04/18 09:03:56;;;;;;;32.60;3.20;;;;;;;;;;5018057;28;20666;-61
2021/04/18 09:06:33;;;;;;;2.63;1.57;;;;;;;;;;5013326;28;20191;-62
2021/04/18 09:09:01;;;;;;;0.40;0.40;;;;;;;;;;5011541;28;20212;-62
2021/04/18 09:11:29;;;;;;;0.00;0.00;;;;;;;;;;5016967;28;20192;-61
2021/04/18 13:30:28;;;;;;;13.20;3.20;;;;;;;;;;5077063;27;21044;-60
2021/04/18 13:32:55;;;;;;;3.23;1.07;;;;;;;;;;5061422;28;20185;-62
2021/04/18 13:35:22;;;;;;;3.63;1.20;;;;;;;;;;5068730;28;20188;-62
2021/04/18 13:37:50;;;;;;;0.73;0.37;;;;;;;;;;5061067;28;20191;-53
2021/04/18 13:40:18;;;;;;;7.00;1.90;;;;;;;;;;5078250;28;20190;-62
2021/04/18 13:42:45;;;;;;;1.63;1.23;;;;;;;;;;5075436;28;20699;-51
2021/04/18 13:45:15;;;;;;;1.63;1.50;;;;;;;;;;5071507;28;20186;-50
2021/04/18 13:47:42;;;;;;;0.80;0.73;;;;;;;;;;5069408;28;20350;-62
2021/04/18 13:50:14;;;;;;;5.40;2.73;;;;;;;;;;5076661;28;20511;-54
2021/04/18 13:52:42;;;;;;;1.73;1.30;;;;;;;;;;5070117;28;20216;-62
2021/04/18 13:55:10;;;;;;;8.80;2.03;;;;;;;;;;5072393;28;20192;-54
2021/04/18 13:57:37;;;;;;;9.43;2.27;;;;;;;;;;5066883;28;20218;-56
2021/04/18 14:00:06;;;;;;;0.80;0.50;;;;;;;;;;5066704;28;20185;-54
2021/04/18 14:02:33;;;;;;;0.30;0.30;;;;;;;;;;5055853;28;20193;-61
2021/04/18 14:05:00;;;;;;;1.00;0.77;;;;;;;;;;5062970;28;20280;-62
2021/04/18 14:07:28;;;;;;;7.83;1.87;;;;;;;;;;5072810;28;20572;-52
2021/04/18 14:09:55;;;;;;;0.53;0.53;;;;;;;;;;5063440;28;20213;-62
2021/04/18 14:12:22;;;;;;;1.33;0.90;;;;;;;;;;5075341;28;20383;-63
2021/04/18 14:14:48;;;;;;;1.47;0.67;;;;;;;;;;5075371;28;20192;-53
2021/04/18 14:17:16;;;;;;;1.13;0.90;;;;;;;;;;5064486;28;20307;-53
2021/04/18 14:19:43;;;;;;;6.70;2.20;;;;;;;;;;5068598;28;20245;-62
2021/04/18 14:22:10;;;;;;;3.17;1.77;;;;;;;;;;5066530;28;20193;-62
2021/04/18 14:24:37;;;;;;;4.87;2.37;;;;;;;;;;5075095;28;20512;-62
2021/04/18 14:27:06;;;;;;;0.63;0.40;;;;;;;;;;5075468;28;20188;-62
2021/04/18 14:29:33;;;;;;;1.90;1.13;;;;;;;;;;5071350;28;20233;-61
2021/04/18 14:32:00;;;;;;;0.17;0.17;;;;;;;;;;5071630;28;20185;-63
2021/04/18 14:34:26;;;;;;;5.30;3.10;;;;;;;;;;5076096;28;20198;-62
2021/04/18 14:36:53;;;;;;;5.23;1.90;;;;;;;;;;5055517;28;20193;-53
2021/04/18 14:39:21;;;;;;;0.63;0.20;;;;;;;;;;5068933;28;20277;-63
2021/04/18 14:41:47;;;;;;;1.00;0.80;;;;;;;;;;5048514;28;20194;-63
2021/04/18 14:44:19;;;;;;;3.73;2.37;;;;;;;;;;5060294;28;20267;-54
2021/04/18 14:46:46;;;;;;;0.10;0.10;;;;;;;;;;5061006;28;20265;-53
2021/04/18 14:49:12;;;;;;;6.00;1.87;;;;;;;;;;5056612;28;20205;-52
2021/04/18 14:51:39;;;;;;;7.53;1.70;;;;;;;;;;5061755;28;20269;-54
2021/04/18 14:54:06;;;;;;;9.50;2.20;;;;;;;;;;5061616;28;20185;-51
2021/04/18 14:56:32;;;;;;;2.03;0.73;;;;;;;;;;5054686;28;20192;-53
2021/04/18 14:58:59;;;;;;;2.23;0.73;;;;;;;;;;5050646;28;20195;-53
2021/04/18 15:01:26;;;;;;;3.33;1.00;;;;;;;;;;5051353;28;20191;-54
2021/04/18 15:03:52;;;;;;;2.73;2.50;;;;;;;;;;5054178;28;20810;-52
2021/04/18 15:06:19;;;;;;;5.53;1.53;;;;;;;;;;5061698;28;20588;-54
2021/04/18 15:08:46;;;;;;;0.37;0.20;;;;;;;;;;5061305;28;20218;-53
2021/04/18 15:11:13;;;;;;;0.73;0.53;;;;;;;;;;5048153;28;20205;-54
2021/04/18 15:13:39;;;;;;;2.87;2.50;;;;;;;;;;5044581;28;20430;-49
2021/04/18 15:16:06;;;;;;;2.23;1.47;;;;;;;;;;5046130;28;20272;-53
2021/04/18 15:18:33;;;;;;;4.17;2.23;;;;;;;;;;5061530;28;20455;-55
2021/04/18 15:20:59;;;;;;;27.70;3.13;;;;;;;;;;5054361;28;20190;-53
2021/04/18 15:23:26;;;;;;;5.27;2.23;;;;;;;;;;5059511;28;20242;-53
2021/04/18 15:25:53;;;;;;;1.27;1.17;;;;;;;;;;5060990;28;20518;-63
2021/04/18 15:28:21;;;;;;;0.47;0.23;;;;;;;;;;5064065;28;20320;-62
2021/04/18 15:30:48;;;;;;;2.17;1.30;;;;;;;;;;5051427;28;20239;-53
2021/04/18 15:33:15;;;;;;;0.30;0.27;;;;;;;;;;5045258;28;20195;-52
2021/04/18 15:35:41;;;;;;;2.83;1.70;;;;;;;;;;5055096;28;20191;-63
2021/04/18 15:38:08;;;;;;;1.60;0.93;;;;;;;;;;5059151;28;20188;-62
2021/04/18 15:40:35;;;;;;;0.77;0.60;;;;;;;;;;5054928;28;20193;-62
2021/04/18 15:43:02;;;;;;;1.13;1.03;;;;;;;;;;5059276;28;20195;-62
2021/04/18 15:45:29;;;;;;;3.77;1.53;;;;;;;;;;5059050;28;20268;-62
2021/04/18 15:47:55;;;;;;;0.83;0.83;;;;;;;;;;5041158;28;20984;-62
2021/04/18 15:50:22;;;;;;;7.07;1.13;;;;;;;;;;5054450;28;20975;-63
2021/04/18 15:52:48;;;;;;;0.67;0.67;;;;;;;;;;5051544;28;20622;-52
2021/04/18 15:55:15;;;;;;;7.17;1.80;;;;;;;;;;5059043;28;20275;-52
2021/04/18 15:57:41;;;;;;;5.33;0.83;;;;;;;;;;5055658;28;20186;-52
2021/04/18 16:00:09;;;;;;;3.80;1.20;;;;;;;;;;5051951;28;20557;-51
2021/04/18 16:02:36;;;;;;;4.03;1.80;;;;;;;;;;5055916;28;20792;-52
2021/04/18 16:05:04;;;;;;;9.93;1.50;;;;;;;;;;5054629;28;20273;-49
2021/04/18 16:07:31;;;;;;;3.23;2.13;;;;;;;;;;5060150;28;20287;-53
2021/04/18 16:09:57;;;;;;;2.77;0.93;;;;;;;;;;5059855;28;20804;-49
2021/04/18 16:12:24;;;;;;;8.40;1.53;;;;;;;;;;5046665;28;20277;-52
2021/04/18 16:14:51;;;;;;;1.00;0.97;;;;;;;;;;5054851;28;20190;-50
2021/04/18 16:17:17;;;;;;;3.03;1.67;;;;;;;;;;5052777;28;20273;-52
2021/04/18 16:19:44;;;;;;;6.90;1.00;;;;;;;;;;5060037;28;20569;-53
2021/04/18 16:22:10;;;;;;;0.30;0.30;;;;;;;;;;5047002;28;20378;-51
2021/04/18 16:24:38;;;;;;;1.30;1.20;;;;;;;;;;5059075;28;20564;-49
2021/04/18 16:27:05;;;;;;;0.13;0.13;;;;;;;;;;5054434;28;20211;-52
2021/04/18 16:29:32;;;;;;;2.57;0.83;;;;;;;;;;5053263;28;20232;-51
2021/04/18 16:31:58;;;;;;;1.83;0.97;;;;;;;;;;5059999;28;20644;-48
2021/04/18 16:34:25;;;;;;;1.40;1.20;;;;;;;;;;5059887;28;20194;-62
2021/04/18 16:36:52;;;;;;;3.40;1.27;;;;;;;;;;5059157;28;20357;-62
2021/04/18 16:39:18;;;;;;;8.47;2.33;;;;;;;;;;5046590;28;20190;-54
2021/04/18 16:41:45;;;;;;;4.60;2.43;;;;;;;;;;5046005;28;20234;-51
2021/04/18 16:44:15;;;;;;;1.80;0.93;;;;;;;;;;5058981;28;20194;-54
2021/04/18 16:46:42;;;;;;;1.90;0.37;;;;;;;;;;5059375;28;20184;-53
2021/04/18 16:49:09;;;;;;;0.00;0.00;;;;;;;;;;5059617;28;20217;-51
2021/04/18 16:51:35;;;;;;;8.20;4.50;;;;;;;;;;5059141;28;20269;-53
2021/04/18 16:54:03;;;;;;;9.50;1.00;;;;;;;;;;5058369;28;20193;-54
2021/04/18 16:56:30;;;;;;;7.23;2.07;;;;;;;;;;5058718;28;20192;-54
2021/04/18 16:58:57;;;;;;;4.87;2.57;;;;;;;;;;5046652;28;20217;-50
2021/04/18 17:01:23;;;;;;;5.23;3.07;;;;;;;;;;5045728;28;20710;-51
2021/04/18 17:03:50;;;;;;;1.17;0.73;;;;;;;;;;5058975;28;20236;-63
2021/04/18 17:06:16;;;;;;;6.13;1.47;;;;;;;;;;5053840;28;20181;-62
2021/04/18 17:08:43;;;;;;;4.20;1.17;;;;;;;;;;5052988;28;20228;-62
2021/04/18 17:11:09;;;;;;;0.20;0.20;;;;;;;;;;5039522;28;20197;-62
2021/04/18 17:13:36;;;;;;;2.60;1.90;;;;;;;;;;5046016;28;20185;-62
2021/04/18 17:16:03;;;;;;;1.63;1.43;;;;;;;;;;5046373;28;20181;-62
2021/04/18 17:18:30;;;;;;;6.03;1.77;;;;;;;;;;5033635;28;20213;-54
2021/04/18 17:20:56;;;;;;;1.30;1.20;;;;;;;;;;5026222;28;20665;-53
2021/04/18 17:23:23;;;;;;;3.20;1.90;;;;;;;;;;5023721;28;20707;-53
2021/04/18 17:25:50;;;;;;;1.37;1.13;;;;;;;;;;5023488;28;20181;-56
2021/04/18 17:28:16;;;;;;;2.23;1.10;;;;;;;;;;5029452;28;20937;-55
2021/04/18 17:30:43;;;;;;;0.60;0.60;;;;;;;;;;5022923;28;20198;-55
2021/04/18 17:33:10;;;;;;;1.10;0.37;;;;;;;;;;5023592;28;20893;-53
2021/04/18 17:35:36;;;;;;;6.03;4.43;;;;;;;;;;5018158;28;20695;-54
2021/04/18 17:38:03;;;;;;;3.27;1.63;;;;;;;;;;5024444;28;20337;-59
2021/04/18 17:40:30;;;;;;;0.20;0.20;;;;;;;;;;5021936;28;20193;-57
2021/04/18 17:42:56;;;;;;;0.37;0.27;;;;;;;;;;5026057;28;20696;-55
2021/04/18 17:45:23;;;;;;;13.10;1.70;;;;;;;;;;5030335;28;20233;-55
2021/04/18 17:47:50;;;;;;;0.50;0.20;;;;;;;;;;5020879;28;20196;-55
2021/04/18 17:50:19;;;;;;;0.00;0.00;;;;;;;;;;5030066;28;20207;-55
2021/04/18 17:52:46;;;;;;;0.40;0.40;;;;;;;;;;5028591;28;20802;-56
2021/04/18 17:55:13;;;;;;;1.10;1.00;;;;;;;;;;5029161;28;20707;-54
2021/04/18 17:57:40;;;;;;;3.00;2.27;;;;;;;;;;5021733;28;20188;-55
2021/04/18 18:00:09;;;;;;;3.73;1.53;;;;;;;;;;5025193;28;20188;-56
2021/04/18 18:02:36;;;;;;;0.30;0.30;;;;;;;;;;5024607;28;20204;-51
2021/04/18 18:05:05;;;;;;;4.77;1.70;;;;;;;;;;5030176;28;20194;-52
2021/04/18 18:07:32;;;;;;;5.83;2.23;;;;;;;;;;5023850;28;20708;-54
2021/04/18 18:10:00;;;;;;;1.00;0.67;;;;;;;;;;5027299;28;20217;-56
2021/04/18 18:12:28;;;;;;;1.90;0.90;;;;;;;;;;5026080;28;20586;-64
2021/04/18 18:14:55;;;;;;;0.73;0.67;;;;;;;;;;5025498;28;20299;-52
2021/04/18 18:17:23;;;;;;;0.13;0.13;;;;;;;;;;5029346;28;20212;-52
2021/04/18 18:19:51;;;;;;;1.87;1.30;;;;;;;;;;5025994;28;20207;-54
2021/04/18 18:22:18;;;;;;;1.57;1.53;;;;;;;;;;5030891;28;20564;-56
2021/04/18 18:24:46;;;;;;;0.03;0.03;;;;;;;;;;5028770;28;20519;-54
2021/04/18 18:27:13;;;;;;;2.47;0.70;;;;;;;;;;5030661;28;20187;-52
2021/04/18 18:29:40;;;;;;;3.90;1.67;;;;;;;;;;5029814;28;20227;-62
2021/04/18 18:32:08;;;;;;;0.47;0.47;;;;;;;;;;5027554;28;20194;-63
2021/04/18 18:34:36;;;;;;;0.23;0.10;;;;;;;;;;5029239;28;20242;-64
2021/04/18 18:37:05;;;;;;;0.17;0.17;;;;;;;;;;5031875;28;20271;-63
2021/04/18 18:39:33;;;;;;;0.37;0.37;;;;;;;;;;5034879;28;20249;-64
2021/04/18 18:42:00;;;;;;;2.20;2.10;;;;;;;;;;5029089;28;20229;-63
2021/04/18 18:44:28;;;;;;;0.80;0.63;;;;;;;;;;5033483;28;20195;-63
2021/04/18 18:46:56;;;;;;;1.17;0.67;;;;;;;;;;5036675;28;20290;-63
2021/04/18 18:49:24;;;;;;;2.27;1.00;;;;;;;;;;5034191;28;20731;-62
2021/04/18 18:51:52;;;;;;;0.10;0.10;;;;;;;;;;5039022;28;20278;-64
2021/04/18 18:54:21;;;;;;;3.50;1.70;;;;;;;;;;5023854;28;20199;-53
2021/04/18 18:56:49;;;;;;;0.47;0.30;;;;;;;;;;5032479;28;22057;-53
2021/04/18 18:59:16;;;;;;;9.97;1.43;;;;;;;;;;5033961;28;20194;-55
2021/04/18 19:01:44;;;;;;;2.47;1.87;;;;;;;;;;5033074;28;20184;-56